Terminal Aerodrome Forecast
Issued by NWS

Home | Current Version | Previous Version | Text Only | Print | Product List | Glossary Off
Versions: 1 2 3 4 5 6 7 8 9 10 11 12 13 14 15 16 17 18

000
FTUS43 KBIS 241100
TAFMOT
TAF
KMOT 241127Z 2412/2512 08008KT 3SM BR BKN003 OVC200
     FM241400 10007KT 3SM -RA BR SCT007 OVC025
     FM242000 28011KT 2SM -RASN BR BKN008 OVC012
     FM242200 31022G30KT 3/4SM -SN BR OVC015=

USA.gov is the U.S. government's official web portal to all federal, state and local government web resources and services.